createdAt,value
2023-03-11T00:02:26.956Z,98975.78
2023-03-11T00:05:31.650Z,98978.69
2023-03-11T00:08:33.473Z,98972.91
2023-03-11T00:11:35.111Z,98969.94
2023-03-11T00:14:36.584Z,98979.47
2023-03-11T00:17:38.027Z,98957.88
2023-03-11T00:20:42.251Z,98966.59
2023-03-11T00:23:43.917Z,98955.66
2023-03-11T00:26:45.390Z,98942.94
2023-03-11T00:29:46.822Z,98959.50
2023-03-11T00:32:49.927Z,98974.63
2023-03-11T00:35:51.461Z,98986.00
2023-03-11T00:38:54.911Z,98988.69
2023-03-11T00:41:56.584Z,98982.97
2023-03-11T00:44:58.150Z,98977.16
2023-03-11T00:47:59.620Z,98970.69
2023-03-11T00:51:01.173Z,98979.47
2023-03-11T00:54:02.763Z,98981.38
2023-03-11T00:57:05.037Z,98977.69
2023-03-11T01:00:11.488Z,98967.84
2023-03-11T01:03:12.914Z,98968.31
2023-03-11T01:06:14.352Z,98956.00
2023-03-11T01:09:15.825Z,98967.84
2023-03-11T01:12:18.088Z,98989.41
2023-03-11T01:15:25.182Z,98995.78
2023-03-11T01:18:27.557Z,98999.28
2023-03-11T01:21:29.103Z,99014.00
2023-03-11T01:24:30.746Z,99010.38
2023-03-11T01:27:32.247Z,99011.44
2023-03-11T01:30:36.065Z,99005.78
2023-03-11T01:33:37.636Z,99006.59
2023-03-11T01:36:40.122Z,99004.38
2023-03-11T01:39:41.561Z,99008.28
2023-03-11T01:42:43.029Z,99005.66
2023-03-11T01:45:47.530Z,98979.44
2023-03-11T01:48:57.162Z,98985.59
2023-03-11T01:52:03.893Z,98973.19
2023-03-11T01:55:06.698Z,98982.13
2023-03-11T01:58:11.770Z,98981.59
2023-03-11T02:01:13.600Z,99002.63
2023-03-11T02:04:16.058Z,98992.09
2023-03-11T02:07:17.850Z,98990.50
2023-03-11T02:10:21.610Z,98990.44
2023-03-11T02:13:23.717Z,99006.84
2023-03-11T02:16:25.932Z,99001.38
2023-03-11T02:19:41.381Z,99003.53
2023-03-11T02:22:43.972Z,99008.75
2023-03-11T02:26:02.773Z,99008.44
2023-03-11T02:29:08.437Z,98983.28
2023-03-11T02:32:10.843Z,98995.69
2023-03-11T02:35:17.606Z,99004.00
2023-03-11T02:38:19.298Z,99007.66
2023-03-11T02:41:20.897Z,99010.63
2023-03-11T02:44:22.511Z,99034.47
2023-03-11T02:47:24.376Z,99028.53
2023-03-11T02:50:28.943Z,99001.13
2023-03-11T02:53:35.460Z,98987.97
2023-03-11T02:56:37.292Z,98988.50
2023-03-11T02:59:38.742Z,98975.38
2023-03-11T03:02:41.124Z,98990.41
2023-03-11T03:05:42.595Z,99004.13
2023-03-11T03:08:44.570Z,98989.97
2023-03-11T03:11:46.135Z,98995.47
2023-03-11T03:14:47.874Z,98964.28
2023-03-11T03:17:51.499Z,98969.00
2023-03-11T03:20:53.035Z,98982.03
2023-03-11T03:23:54.539Z,98983.72
2023-03-11T03:26:55.981Z,98994.66
2023-03-11T03:29:57.487Z,98984.81
2023-03-11T03:32:59.645Z,98990.72
2023-03-11T03:36:07.217Z,99001.59
2023-03-11T03:39:13.704Z,99009.66
2023-03-11T03:42:15.947Z,99013.16
2023-03-11T03:45:17.611Z,99026.69
2023-03-11T03:48:19.990Z,99029.59
2023-03-11T03:51:22.680Z,99031.97
2023-03-11T03:54:35.295Z,99030.25
2023-03-11T03:57:37.592Z,99040.56
2023-03-11T04:00:39.890Z,99035.09
2023-03-11T04:03:41.688Z,99048.84
2023-03-11T04:06:46.527Z,99031.09
2023-03-11T04:09:48.178Z,99028.66
2023-03-11T04:12:50.265Z,99014.66
2023-03-11T04:15:52.108Z,99014.75
2023-03-11T04:18:53.648Z,99020.44
2023-03-11T04:21:56.401Z,99022.88
2023-03-11T04:25:00.008Z,99023.41
2023-03-11T04:28:02.526Z,99023.19
2023-03-11T04:31:05.290Z,99036.78
2023-03-11T04:34:08.255Z,99042.00
2023-03-11T04:37:11.569Z,99039.19
2023-03-11T04:40:13.435Z,99042.41
2023-03-11T04:43:15.231Z,99046.59
2023-03-11T04:46:16.960Z,99055.31
2023-03-11T04:49:18.739Z,99057.19
2023-03-11T04:52:20.357Z,99055.75
2023-03-11T04:55:22.203Z,99059.66
2023-03-11T04:58:24.021Z,99058.13
2023-03-11T05:01:25.598Z,99061.25
2023-03-11T05:04:27.302Z,99062.56
2023-03-11T05:07:28.885Z,99049.44
2023-03-11T05:10:32.141Z,99045.84
2023-03-11T05:13:36.441Z,99042.44
2023-03-11T05:16:38.518Z,99051.41
2023-03-11T05:19:40.723Z,99040.03
2023-03-11T05:22:47.904Z,99036.69
2023-03-11T05:25:49.536Z,99039.97
2023-03-11T05:28:50.991Z,99041.78
2023-03-11T05:31:53.589Z,99040.59
2023-03-11T05:34:55.334Z,99062.38
2023-03-11T05:37:56.805Z,99055.53
2023-03-11T05:41:02.171Z,99049.75
2023-03-11T05:44:04.475Z,99049.19
2023-03-11T05:47:06.063Z,99048.59
2023-03-11T05:50:11.339Z,99053.25
2023-03-11T05:53:14.300Z,99047.81
2023-03-11T05:56:17.045Z,99053.03
2023-03-11T05:59:18.678Z,99060.31
2023-03-11T06:02:27.064Z,99052.16
2023-03-11T06:05:29.821Z,99049.44
2023-03-11T06:08:34.375Z,99043.69
2023-03-11T06:11:36.890Z,99046.47
2023-03-11T06:14:38.677Z,99051.88
2023-03-11T06:17:40.671Z,99064.19
2023-03-11T06:20:43.305Z,99078.22
2023-03-11T06:23:46.082Z,99070.72
2023-03-11T06:26:52.029Z,99082.28
2023-03-11T06:29:55.075Z,99090.75
2023-03-11T06:32:58.886Z,99090.91
2023-03-11T06:36:03.105Z,99083.00
2023-03-11T06:39:04.705Z,99090.00
2023-03-11T06:42:10.146Z,99093.19
2023-03-11T06:45:11.934Z,99093.66
2023-03-11T06:48:15.871Z,99091.84
2023-03-11T06:51:18.298Z,99109.97
2023-03-11T06:54:19.816Z,99109.41
2023-03-11T06:57:21.746Z,99108.44
2023-03-11T07:00:24.864Z,99117.75
2023-03-11T07:03:31.074Z,99118.69
2023-03-11T07:06:33.385Z,99129.72
2023-03-11T07:09:45.995Z,99119.41
2023-03-11T07:12:49.170Z,99130.72
2023-03-11T07:16:00.139Z,99141.06
2023-03-11T07:19:03.206Z,99127.44
2023-03-11T07:22:04.705Z,99144.59
2023-03-11T07:25:06.550Z,99137.06
2023-03-11T07:28:07.963Z,99145.28
2023-03-11T07:31:14.488Z,99149.03
2023-03-11T07:34:16.551Z,99163.06
2023-03-11T07:37:18.153Z,99166.72
2023-03-11T07:40:19.963Z,99167.41
2023-03-11T07:43:21.448Z,99169.31
2023-03-11T07:46:24.463Z,99177.06
2023-03-11T07:49:25.978Z,99186.47
2023-03-11T07:52:31.296Z,99184.78
2023-03-11T07:55:33.306Z,99186.41
2023-03-11T07:58:34.961Z,99185.59
2023-03-11T08:01:36.732Z,99185.25
2023-03-11T08:04:38.328Z,99180.34
2023-03-11T08:07:39.911Z,99181.47
2023-03-11T08:10:41.425Z,99176.47
2023-03-11T08:13:44.679Z,99176.34
2023-03-11T08:16:46.233Z,99172.78
2023-03-11T08:19:49.534Z,99182.34
2023-03-11T08:22:58.025Z,99185.31
2023-03-11T08:26:04.134Z,99181.56
2023-03-11T08:29:05.662Z,99186.25
2023-03-11T08:32:07.159Z,99186.97
2023-03-11T08:35:10.005Z,99186.84
2023-03-11T08:38:11.555Z,99192.06
2023-03-11T08:41:13.308Z,99192.06
2023-03-11T08:44:14.794Z,99207.91
2023-03-11T08:47:16.213Z,99211.59
2023-03-11T08:50:19.636Z,99209.72
2023-03-11T08:53:22.431Z,99214.75
2023-03-11T08:56:23.920Z,99214.81
2023-03-11T08:59:25.470Z,99222.91
2023-03-11T09:02:27.449Z,99210.44
2023-03-11T09:05:29.059Z,99204.94
2023-03-11T09:08:31.006Z,99204.19
2023-03-11T09:11:32.485Z,99216.41
2023-03-11T09:14:34.145Z,99219.88
2023-03-11T09:17:36.154Z,99211.72
2023-03-11T09:20:39.215Z,99217.72
2023-03-11T09:23:43.990Z,99224.63
2023-03-11T09:26:45.888Z,99222.44
2023-03-11T09:29:47.337Z,99221.59
2023-03-11T09:32:48.773Z,99230.09
2023-03-11T09:35:50.327Z,99228.50
2023-03-11T09:38:51.936Z,99237.97
2023-03-11T09:41:58.714Z,99236.16
2023-03-11T09:45:15.102Z,99236.28
2023-03-11T09:48:43.562Z,99233.16
2023-03-11T09:51:57.595Z,99240.34
2023-03-11T09:55:02.103Z,99238.88
2023-03-11T09:58:11.995Z,99231.59
2023-03-11T10:01:30.087Z,99223.25
2023-03-11T10:04:41.937Z,99217.13
2023-03-11T10:07:49.758Z,99200.94
2023-03-11T10:11:16.145Z,99211.41
2023-03-11T10:14:24.771Z,99215.25
2023-03-11T10:17:44.587Z,99215.63
2023-03-11T10:20:52.867Z,99213.56
2023-03-11T10:24:16.575Z,99205.06
2023-03-11T10:27:26.354Z,99202.44
2023-03-11T10:30:31.192Z,99207.19
2023-03-11T10:33:41.285Z,99213.44
2023-03-11T10:37:06.759Z,99216.69
2023-03-11T10:40:28.047Z,99211.03
2023-03-11T10:43:41.462Z,99212.94
2023-03-11T10:46:43.889Z,99213.00
2023-03-11T10:49:45.609Z,99217.63
2023-03-11T10:53:10.365Z,99214.25
2023-03-11T10:56:42.145Z,99208.75
2023-03-11T10:59:55.280Z,99196.75
2023-03-11T11:03:01.538Z,99203.66
2023-03-11T11:06:17.927Z,99200.50
2023-03-11T11:09:22.419Z,99201.97
2023-03-11T11:12:24.053Z,99199.19
2023-03-11T11:15:33.284Z,99193.25
2023-03-11T11:18:49.437Z,99192.38
2023-03-11T11:21:52.382Z,99193.72
2023-03-11T11:24:55.933Z,99188.22
2023-03-11T11:28:14.818Z,99188.81
2023-03-11T11:31:25.730Z,99183.75
2023-03-11T11:34:34.721Z,99195.00
2023-03-11T11:37:41.232Z,99184.94
2023-03-11T11:40:45.723Z,99178.88
2023-03-11T11:43:53.218Z,99180.91
2023-03-11T11:47:00.885Z,99186.50
2023-03-11T11:50:06.181Z,99182.38
2023-03-11T11:53:46.639Z,99173.22
2023-03-11T11:56:48.312Z,99167.06
2023-03-11T11:59:50.703Z,99159.41
2023-03-11T12:03:04.575Z,99163.69
2023-03-11T12:06:17.615Z,99161.66
2023-03-11T12:09:28.355Z,99159.78
2023-03-11T12:12:42.589Z,99158.25
2023-03-11T12:15:59.479Z,99158.94
2023-03-11T12:19:13.084Z,99145.03
2023-03-11T12:22:56.466Z,99157.72
2023-03-11T12:26:15.188Z,99147.50
2023-03-11T12:29:43.245Z,99146.53
2023-03-11T12:32:54.147Z,99152.63
2023-03-11T12:35:58.302Z,99153.94
2023-03-11T12:39:06.660Z,99157.75
2023-03-11T12:42:11.265Z,99150.78
2023-03-11T12:45:53.251Z,99149.06
2023-03-11T12:49:04.530Z,99144.66
2023-03-11T12:52:06.174Z,99141.38
2023-03-11T12:55:17.071Z,99136.03
2023-03-11T12:58:51.344Z,99144.03
2023-03-11T13:02:24.590Z,99139.94
2023-03-11T13:06:00.432Z,99131.28
2023-03-11T13:09:02.400Z,99139.44
2023-03-11T13:12:24.242Z,99138.97
2023-03-11T13:15:30.915Z,99135.41
2023-03-11T13:18:33.084Z,99146.03
2023-03-11T13:21:39.475Z,99147.66
2023-03-11T13:24:50.208Z,99147.53
2023-03-11T13:27:58.510Z,99137.16
2023-03-11T13:31:19.039Z,99154.28
2023-03-11T13:34:35.639Z,99149.19
2023-03-11T13:38:14.747Z,99157.84
2023-03-11T13:41:38.031Z,99143.06
2023-03-11T13:44:41.160Z,99137.59
2023-03-11T13:47:49.567Z,99144.56
2023-03-11T13:51:00.554Z,99142.63
2023-03-11T13:54:20.138Z,99146.03
2023-03-11T13:57:27.279Z,99136.72
2023-03-11T14:00:30.672Z,99140.69
2023-03-11T14:03:40.598Z,99131.38
2023-03-11T14:06:42.749Z,99141.69
2023-03-11T14:09:44.440Z,99144.50
2023-03-11T14:12:46.826Z,99140.09
2023-03-11T14:16:04.322Z,99140.22
2023-03-11T14:19:13.593Z,99145.66
2023-03-11T14:22:15.450Z,99148.75
2023-03-11T14:25:24.641Z,99154.63
2023-03-11T14:28:29.365Z,99155.38
2023-03-11T14:31:34.099Z,99152.44
2023-03-11T14:34:40.531Z,99144.53
2023-03-11T14:37:42.261Z,99145.66
2023-03-11T14:40:44.015Z,99139.75
2023-03-11T14:43:51.035Z,99134.34
2023-03-11T14:46:55.247Z,99127.66
2023-03-11T14:49:58.829Z,99143.16
2023-03-11T14:53:12.395Z,99145.56
2023-03-11T14:56:19.106Z,99139.06
2023-03-11T14:59:26.846Z,99151.94
2023-03-11T15:02:46.666Z,99149.09
2023-03-11T15:05:56.480Z,99148.47
2023-03-11T15:09:15.821Z,99150.84
2023-03-11T15:12:32.555Z,99152.41
2023-03-11T15:15:34.626Z,99153.59
2023-03-11T15:18:37.779Z,99148.19
2023-03-11T15:21:46.389Z,99162.53
2023-03-11T15:24:59.906Z,99156.41
2023-03-11T15:28:36.507Z,99160.41
2023-03-11T15:31:40.062Z,99163.38
2023-03-11T15:34:42.553Z,99167.78
2023-03-11T15:37:45.553Z,99165.81
2023-03-11T15:41:01.051Z,99168.56
2023-03-11T15:44:04.153Z,99169.84
2023-03-11T15:47:06.107Z,99176.66
2023-03-11T15:50:23.547Z,99173.63
2023-03-11T15:53:27.826Z,99182.44
2023-03-11T15:56:30.417Z,99183.78
2023-03-11T15:59:33.038Z,99181.78
2023-03-11T16:02:34.608Z,99180.06
2023-03-11T16:05:36.166Z,99184.03
2023-03-11T16:08:37.703Z,99198.84
2023-03-11T16:11:40.433Z,99196.88
2023-03-11T16:14:42.053Z,99194.94
2023-03-11T16:17:49.652Z,99193.44
2023-03-11T16:20:55.352Z,99195.06
2023-03-11T16:23:57.019Z,99201.28
2023-03-11T16:26:59.795Z,99203.19
2023-03-11T16:30:01.573Z,99196.59
2023-03-11T16:33:05.006Z,99186.75
2023-03-11T16:36:07.356Z,99194.38
2023-03-11T16:39:08.885Z,99194.38
2023-03-11T16:42:10.347Z,99192.66
2023-03-11T16:45:17.275Z,99193.75
2023-03-11T16:48:18.720Z,99200.84
2023-03-11T16:51:20.136Z,99201.81
2023-03-11T16:54:21.546Z,99204.19
2023-03-11T16:57:23.177Z,99208.03
2023-03-11T17:00:25.103Z,99208.41
2023-03-11T17:03:31.553Z,99208.16
2023-03-11T17:06:36.012Z,99215.66
2023-03-11T17:09:37.634Z,99221.28
2023-03-11T17:12:39.044Z,99236.22
2023-03-11T17:15:44.277Z,99246.25
2023-03-11T17:18:46.087Z,99246.69
2023-03-11T17:21:47.511Z,99248.19
2023-03-11T17:24:48.951Z,99253.53
2023-03-11T17:27:50.459Z,99261.06
2023-03-11T17:30:51.884Z,99263.25
2023-03-11T17:33:53.338Z,99269.69
2023-03-11T17:36:56.041Z,99275.56
2023-03-11T17:39:57.533Z,99279.84
2023-03-11T17:42:59.491Z,99287.22
2023-03-11T17:46:01.148Z,99290.50
2023-03-11T17:49:02.703Z,99289.81
2023-03-11T17:52:04.630Z,99301.47
2023-03-11T17:55:06.838Z,99306.78
2023-03-11T17:58:09.012Z,99312.03
2023-03-11T18:01:17.143Z,99311.50
2023-03-11T18:04:21.215Z,99301.34
2023-03-11T18:07:23.662Z,99303.00
2023-03-11T18:10:25.260Z,99311.13
2023-03-11T18:13:26.702Z,99313.56
2023-03-11T18:16:31.741Z,99320.66
2023-03-11T18:19:34.059Z,99328.31
2023-03-11T18:22:35.614Z,99314.81
2023-03-11T18:25:37.201Z,99327.03
2023-03-11T18:28:39.281Z,99331.81
2023-03-11T18:31:40.957Z,99324.72
2023-03-11T18:34:42.975Z,99330.59
2023-03-11T18:37:44.550Z,99333.69
2023-03-11T18:40:46.023Z,99340.19
2023-03-11T18:43:51.510Z,99333.84
2023-03-11T18:46:52.939Z,99340.72
2023-03-11T18:49:54.819Z,99337.09
2023-03-11T18:52:56.287Z,99348.16
2023-03-11T18:56:09.950Z,99353.84
2023-03-11T18:59:12.134Z,99358.81
2023-03-11T19:02:13.625Z,99359.03
2023-03-11T19:05:15.206Z,99364.16
2023-03-11T19:08:16.996Z,99361.63
2023-03-11T19:11:21.358Z,99356.31
2023-03-11T19:14:23.044Z,99368.94
2023-03-11T19:17:24.543Z,99366.34
2023-03-11T19:20:26.997Z,99375.97
2023-03-11T19:23:29.042Z,99368.91
2023-03-11T19:26:44.847Z,99369.50
2023-03-11T19:29:47.364Z,99367.16
2023-03-11T19:32:52.671Z,99374.72
2023-03-11T19:35:59.443Z,99380.22
2023-03-11T19:39:00.864Z,99374.69
2023-03-11T19:42:02.320Z,99377.16
2023-03-11T19:45:04.348Z,99383.38
2023-03-11T19:48:05.912Z,99387.13
2023-03-11T19:51:07.607Z,99390.28
2023-03-11T19:54:11.195Z,99391.06
2023-03-11T19:57:12.621Z,99397.09
2023-03-11T20:00:14.412Z,99400.94
2023-03-11T20:03:16.713Z,99406.72
2023-03-11T20:06:20.680Z,99403.09
2023-03-11T20:09:22.642Z,99409.03
2023-03-11T20:12:24.045Z,99412.56
2023-03-11T20:15:25.564Z,99415.53
2023-03-11T20:18:27.035Z,99420.53
2023-03-11T20:21:28.483Z,99415.41
2023-03-11T20:24:29.930Z,99426.97
2023-03-11T20:27:31.387Z,99426.84
2023-03-11T20:30:32.984Z,99424.03
2023-03-11T20:33:34.507Z,99430.16
2023-03-11T20:36:36.168Z,99429.78
2023-03-11T20:39:39.126Z,99430.16
2023-03-11T20:42:43.300Z,99435.88
2023-03-11T20:45:44.997Z,99429.19
2023-03-11T20:48:46.939Z,99430.88
2023-03-11T20:51:48.807Z,99437.31
2023-03-11T20:54:50.752Z,99440.25
2023-03-11T20:57:54.392Z,99443.38
2023-03-11T21:00:56.310Z,99436.88
2023-03-11T21:04:02.280Z,99442.41
2023-03-11T21:07:04.123Z,99454.53
2023-03-11T21:10:08.863Z,99446.44
2023-03-11T21:13:10.674Z,99450.09
2023-03-11T21:16:13.259Z,99451.44
2023-03-11T21:19:15.428Z,99452.69
2023-03-11T21:22:17.308Z,99454.34
2023-03-11T21:25:19.156Z,99453.50
2023-03-11T21:28:20.881Z,99453.59
2023-03-11T21:31:27.827Z,99462.72
2023-03-11T21:34:30.712Z,99456.50
2023-03-11T21:37:32.630Z,99457.81
2023-03-11T21:40:34.468Z,99456.94
2023-03-11T21:43:37.322Z,99461.16
2023-03-11T21:46:38.978Z,99455.47
2023-03-11T21:49:40.833Z,99461.94
2023-03-11T21:52:42.430Z,99460.13
2023-03-11T21:55:44.544Z,99468.22
2023-03-11T21:58:46.116Z,99462.31
2023-03-11T22:01:47.769Z,99462.59
2023-03-11T22:04:49.559Z,99458.06
2023-03-11T22:07:51.195Z,99465.16
2023-03-11T22:10:53.066Z,99467.66
2023-03-11T22:13:56.059Z,99463.72
2023-03-11T22:16:57.868Z,99461.94
2023-03-11T22:19:59.557Z,99471.56
2023-03-11T22:23:02.137Z,99466.69
2023-03-11T22:26:03.960Z,99460.72
2023-03-11T22:29:07.218Z,99458.56
2023-03-11T22:32:10.544Z,99464.81
2023-03-11T22:35:11.938Z,99458.00
2023-03-11T22:38:13.568Z,99457.69
2023-03-11T22:41:19.323Z,99463.13
2023-03-11T22:44:20.744Z,99469.00
2023-03-11T22:47:22.256Z,99476.22
2023-03-11T22:50:23.719Z,99470.75
2023-03-11T22:53:25.174Z,99471.56
2023-03-11T22:56:26.618Z,99482.19
2023-03-11T22:59:30.550Z,99478.44
2023-03-11T23:02:32.003Z,99482.59
2023-03-11T23:05:40.629Z,99489.19
2023-03-11T23:08:42.465Z,99469.53
2023-03-11T23:11:43.932Z,99477.28
2023-03-11T23:14:47.071Z,99487.88
2023-03-11T23:17:48.483Z,99494.56
2023-03-11T23:20:49.895Z,99490.28
2023-03-11T23:23:52.243Z,99480.97
2023-03-11T23:26:53.631Z,99489.53
2023-03-11T23:29:55.009Z,99489.91
2023-03-11T23:32:57.233Z,99492.44
2023-03-11T23:36:03.946Z,99492.78
2023-03-11T23:39:05.403Z,99494.28
2023-03-11T23:42:18.584Z,99490.97
2023-03-11T23:45:26.296Z,99489.69
2023-03-11T23:48:27.751Z,99488.72
2023-03-11T23:51:29.223Z,99480.59
2023-03-11T23:54:30.646Z,99476.31
2023-03-11T23:57:34.741Z,99466.50
